sensor_id;sensor_type;location;lat;lon;timestamp;pressure;altitude;pressure_sealevel;temperature;humidity
35443;BME280;21561;55.654;37.592;2024-01-30T00:02:17;100396.94;;;-2.17;100.00
35443;BME280;21561;55.654;37.592;2024-01-30T00:04:44;100380.09;;;-2.15;100.00
35443;BME280;21561;55.654;37.592;2024-01-30T00:07:11;100393.78;;;-2.13;100.00
35443;BME280;21561;55.654;37.592;2024-01-30T00:09:38;100396.41;;;-2.11;100.00
35443;BME280;21561;55.654;37.592;2024-01-30T00:12:06;100427.78;;;-2.11;100.00
35443;BME280;21561;55.654;37.592;2024-01-30T00:14:33;100419.22;;;-2.13;100.00
35443;BME280;21561;55.654;37.592;2024-01-30T00:17:00;100414.13;;;-2.13;100.00
35443;BME280;21561;55.654;37.592;2024-01-30T00:19:27;100411.50;;;-2.14;100.00
35443;BME280;21561;55.654;37.592;2024-01-30T00:21:54;100420.97;;;-2.12;100.00
35443;BME280;21561;55.654;37.592;2024-01-30T00:24:21;100410.00;;;-2.11;100.00
35443;BME280;21561;55.654;37.592;2024-01-30T00:26:48;100413.59;;;-2.07;100.00
35443;BME280;21561;55.654;37.592;2024-01-30T00:29:15;100419.53;;;-2.06;100.00
35443;BME280;21561;55.654;37.592;2024-01-30T00:31:46;100391.75;;;-2.03;100.00
35443;BME280;21561;55.654;37.592;2024-01-30T00:34:13;100413.03;;;-2.01;100.00
35443;BME280;21561;55.654;37.592;2024-01-30T00:36:40;100425.66;;;-2.03;100.00
35443;BME280;21561;55.654;37.592;2024-01-30T00:39:07;100416.22;;;-2.05;100.00
35443;BME280;21561;55.654;37.592;2024-01-30T00:41:35;100414.81;;;-2.00;100.00
35443;BME280;21561;55.654;37.592;2024-01-30T00:44:03;100404.63;;;-2.00;100.00
35443;BME280;21561;55.654;37.592;2024-01-30T00:46:30;100397.97;;;-1.98;100.00
35443;BME280;21561;55.654;37.592;2024-01-30T00:48:56;100397.97;;;-1.98;100.00
35443;BME280;21561;55.654;37.592;2024-01-30T00:51:24;100380.94;;;-1.99;100.00
35443;BME280;21561;55.654;37.592;2024-01-30T00:53:51;100397.97;;;-1.98;100.00
35443;BME280;21561;55.654;37.592;2024-01-30T00:56:19;100426.91;;;-1.96;100.00
35443;BME280;21561;55.654;37.592;2024-01-30T00:58:46;100398.81;;;-1.98;100.00
35443;BME280;21561;55.654;37.592;2024-01-30T01:01:13;100387.06;;;-1.96;100.00
35443;BME280;21561;55.654;37.592;2024-01-30T01:03:41;100391.28;;;-1.96;100.00
35443;BME280;21561;55.654;37.592;2024-01-30T01:06:10;100377.94;;;-1.92;100.00
35443;BME280;21561;55.654;37.592;2024-01-30T01:08:37;100390.75;;;-1.90;100.00
35443;BME280;21561;55.654;37.592;2024-01-30T01:11:04;100396.00;;;-1.87;100.00
35443;BME280;21561;55.654;37.592;2024-01-30T01:13:31;100384.06;;;-1.88;100.00
35443;BME280;21561;55.654;37.592;2024-01-30T01:15:58;100393.56;;;-1.86;100.00
35443;BME280;21561;55.654;37.592;2024-01-30T01:18:25;100377.47;;;-1.85;100.00
35443;BME280;21561;55.654;37.592;2024-01-30T01:20:53;100395.47;;;-1.82;100.00
35443;BME280;21561;55.654;37.592;2024-01-30T01:23:20;100392.28;;;-1.78;100.00
35443;BME280;21561;55.654;37.592;2024-01-30T01:25:47;100385.63;;;-1.76;100.00
35443;BME280;21561;55.654;37.592;2024-01-30T01:28:14;100384.91;;;-1.73;100.00
35443;BME280;21561;55.654;37.592;2024-01-30T01:30:41;100375.69;;;-1.71;100.00
35443;BME280;21561;55.654;37.592;2024-01-30T01:33:08;100372.28;;;-1.71;100.00
35443;BME280;21561;55.654;37.592;2024-01-30T01:35:36;100371.50;;;-1.70;100.00
35443;BME280;21561;55.654;37.592;2024-01-30T01:38:03;100372.28;;;-1.71;100.00
35443;BME280;21561;55.654;37.592;2024-01-30T01:40:30;100371.50;;;-1.70;100.00
35443;BME280;21561;55.654;37.592;2024-01-30T01:42:57;100370.50;;;-1.73;100.00
35443;BME280;21561;55.654;37.592;2024-01-30T01:45:24;100364.63;;;-1.71;100.00
35443;BME280;21561;55.654;37.592;2024-01-30T01:47:51;100363.84;;;-1.70;100.00
35443;BME280;21561;55.654;37.592;2024-01-30T01:50:20;100373.22;;;-1.69;100.00
35443;BME280;21561;55.654;37.592;2024-01-30T01:52:49;100365.75;;;-1.66;100.00
35443;BME280;21561;55.654;37.592;2024-01-30T01:55:20;100368.53;;;-1.62;100.00
35443;BME280;21561;55.654;37.592;2024-01-30T01:57:53;100348.91;;;-1.64;100.00
35443;BME280;21561;55.654;37.592;2024-01-30T02:00:20;100363.38;;;-1.63;100.00
35443;BME280;21561;55.654;37.592;2024-01-30T02:02:47;100344.69;;;-1.64;100.00
35443;BME280;21561;55.654;37.592;2024-01-30T02:05:15;100383.81;;;-1.62;100.00
35443;BME280;21561;55.654;37.592;2024-01-30T02:07:43;100349.06;;;-1.61;100.00
35443;BME280;21561;55.654;37.592;2024-01-30T02:10:11;100361.88;;;-1.60;100.00
35443;BME280;21561;55.654;37.592;2024-01-30T02:12:38;100354.94;;;-1.62;100.00
35443;BME280;21561;55.654;37.592;2024-01-30T02:15:06;100347.41;;;-1.61;100.00
35443;BME280;21561;55.654;37.592;2024-01-30T02:17:39;100367.66;;;-1.62;100.00
35443;BME280;21561;55.654;37.592;2024-01-30T02:20:07;100360.22;;;-1.59;100.00
35443;BME280;21561;55.654;37.592;2024-01-30T02:22:36;100338.25;;;-1.57;100.00
35443;BME280;21561;55.654;37.592;2024-01-30T02:25:04;100349.47;;;-1.54;100.00
35443;BME280;21561;55.654;37.592;2024-01-30T02:27:31;100337.47;;;-1.56;100.00
35443;BME280;21561;55.654;37.592;2024-01-30T02:29:58;100342.69;;;-1.53;100.00
35443;BME280;21561;55.654;37.592;2024-01-30T02:32:25;100336.81;;;-1.52;100.00
35443;BME280;21561;55.654;37.592;2024-01-30T02:34:52;100353.84;;;-1.51;100.00
35443;BME280;21561;55.654;37.592;2024-01-30T02:37:19;100344.63;;;-1.49;100.00
35443;BME280;21561;55.654;37.592;2024-01-30T02:39:46;100345.59;;;-1.47;100.00
35443;BME280;21561;55.654;37.592;2024-01-30T02:42:13;100349.00;;;-1.46;100.00
35443;BME280;21561;55.654;37.592;2024-01-30T02:44:40;100340.56;;;-1.45;100.00
35443;BME280;21561;55.654;37.592;2024-01-30T02:47:07;100330.41;;;-1.45;100.00
35443;BME280;21561;55.654;37.592;2024-01-30T02:49:34;100349.16;;;-1.43;100.00
35443;BME280;21561;55.654;37.592;2024-01-30T02:52:01;100353.34;;;-1.44;100.00
35443;BME280;21561;55.654;37.592;2024-01-30T02:54:28;100352.56;;;-1.43;100.00
35443;BME280;21561;55.654;37.592;2024-01-30T02:56:57;100357.03;;;-1.39;100.00
35443;BME280;21561;55.654;37.592;2024-01-30T02:59:24;100339.19;;;-1.39;100.00
35443;BME280;21561;55.654;37.592;2024-01-30T03:01:51;100328.22;;;-1.38;100.00
35443;BME280;21561;55.654;37.592;2024-01-30T03:04:18;100319.09;;;-1.34;100.00
35443;BME280;21561;55.654;37.592;2024-01-30T03:06:45;100345.41;;;-1.33;100.00
35443;BME280;21561;55.654;37.592;2024-01-30T03:09:18;100354.16;;;-1.28;100.00
35443;BME280;21561;55.654;37.592;2024-01-30T03:11:45;100336.44;;;-1.27;100.00
35443;BME280;21561;55.654;37.592;2024-01-30T03:14:12;100342.38;;;-1.26;100.00
35443;BME280;21561;55.654;37.592;2024-01-30T03:16:39;100355.19;;;-1.25;100.00
35443;BME280;21561;55.654;37.592;2024-01-30T03:19:06;100357.84;;;-1.23;100.00
35443;BME280;21561;55.654;37.592;2024-01-30T03:21:35;100356.22;;;-1.21;100.00
35443;BME280;21561;55.654;37.592;2024-01-30T03:24:02;100364.03;;;-1.18;100.00
35443;BME280;21561;55.654;37.592;2024-01-30T03:26:30;100380.28;;;-1.16;100.00
35443;BME280;21561;55.654;37.592;2024-01-30T03:28:57;100381.88;;;-1.18;100.00
35443;BME280;21561;55.654;37.592;2024-01-30T03:31:24;100366.72;;;-1.15;100.00
35443;BME280;21561;55.654;37.592;2024-01-30T03:33:51;100369.22;;;-1.17;100.00
35443;BME280;21561;55.654;37.592;2024-01-30T03:36:18;100373.56;;;-1.14;100.00
35443;BME280;21561;55.654;37.592;2024-01-30T03:38:45;100385.53;;;-1.13;100.00
35443;BME280;21561;55.654;37.592;2024-01-30T03:41:12;100371.19;;;-1.11;100.00
35443;BME280;21561;55.654;37.592;2024-01-30T03:43:39;100366.03;;;-1.12;100.00
35443;BME280;21561;55.654;37.592;2024-01-30T03:46:07;100360.19;;;-1.10;100.00
35443;BME280;21561;55.654;37.592;2024-01-30T03:48:34;100344.28;;;-1.06;100.00
35443;BME280;21561;55.654;37.592;2024-01-30T03:51:01;100351.94;;;-1.06;100.00
35443;BME280;21561;55.654;37.592;2024-01-30T03:53:28;100367.34;;;-1.03;100.00
35443;BME280;21561;55.654;37.592;2024-01-30T03:55:55;100387.72;;;-1.03;100.00
35443;BME280;21561;55.654;37.592;2024-01-30T03:58:23;100384.41;;;-1.02;100.00
35443;BME280;21561;55.654;37.592;2024-01-30T04:00:50;100372.59;;;-1.00;100.00
35443;BME280;21561;55.654;37.592;2024-01-30T04:03:17;100368.53;;;-0.96;100.00
35443;BME280;21561;55.654;37.592;2024-01-30T04:05:45;100378.81;;;-0.94;100.00
35443;BME280;21561;55.654;37.592;2024-01-30T04:08:12;100389.09;;;-0.93;100.00
35443;BME280;21561;55.654;37.592;2024-01-30T04:10:40;100384.88;;;-0.92;100.00
35443;BME280;21561;55.654;37.592;2024-01-30T04:13:07;100389.97;;;-0.92;100.00
35443;BME280;21561;55.654;37.592;2024-01-30T04:15:38;100383.25;;;-0.90;100.00
35443;BME280;21561;55.654;37.592;2024-01-30T04:18:05;100381.59;;;-0.90;100.00
35443;BME280;21561;55.654;37.592;2024-01-30T04:20:32;100377.47;;;-0.88;100.00
35443;BME280;21561;55.654;37.592;2024-01-30T04:22:59;100388.69;;;-0.84;100.00
35443;BME280;21561;55.654;37.592;2024-01-30T04:25:26;100388.69;;;-0.84;100.00
35443;BME280;21561;55.654;37.592;2024-01-30T04:27:54;100382.78;;;-0.83;100.00
35443;BME280;21561;55.654;37.592;2024-01-30T04:30:21;100384.53;;;-0.82;100.00
35443;BME280;21561;55.654;37.592;2024-01-30T04:32:48;100365.97;;;-0.80;100.00
35443;BME280;21561;55.654;37.592;2024-01-30T04:35:15;100384.84;;;-0.76;100.00
35443;BME280;21561;55.654;37.592;2024-01-30T04:37:42;100373.78;;;-0.77;100.00
35443;BME280;21561;55.654;37.592;2024-01-30T04:40:09;100377.34;;;-0.73;100.00
35443;BME280;21561;55.654;37.592;2024-01-30T04:42:36;100372.25;;;-0.73;100.00
35443;BME280;21561;55.654;37.592;2024-01-30T04:45:03;100372.25;;;-0.73;100.00
35443;BME280;21561;55.654;37.592;2024-01-30T04:47:31;100368.09;;;-0.71;100.00
35443;BME280;21561;55.654;37.592;2024-01-30T04:49:58;100374.16;;;-0.69;100.00
35443;BME280;21561;55.654;37.592;2024-01-30T04:52:24;100375.00;;;-0.68;100.00
35443;BME280;21561;55.654;37.592;2024-01-30T04:54:51;100366.56;;;-0.67;100.00
35443;BME280;21561;55.654;37.592;2024-01-30T04:57:18;100386.22;;;-0.65;100.00
35443;BME280;21561;55.654;37.592;2024-01-30T04:59:45;100388.72;;;-0.66;100.00
35443;BME280;21561;55.654;37.592;2024-01-30T05:02:12;100393.09;;;-0.64;100.00
35443;BME280;21561;55.654;37.592;2024-01-30T05:04:41;100384.72;;;-0.61;100.00
35443;BME280;21561;55.654;37.592;2024-01-30T05:07:08;100377.81;;;-0.64;100.00
35443;BME280;21561;55.654;37.592;2024-01-30T05:09:35;100394.13;;;-0.60;100.00
35443;BME280;21561;55.654;37.592;2024-01-30T05:12:02;100378.81;;;-0.60;100.00
35443;BME280;21561;55.654;37.592;2024-01-30T05:14:29;100391.81;;;-0.55;100.00
35443;BME280;21561;55.654;37.592;2024-01-30T05:16:56;100389.19;;;-0.57;100.00
35443;BME280;21561;55.654;37.592;2024-01-30T05:19:23;100378.91;;;-0.59;100.00
35443;BME280;21561;55.654;37.592;2024-01-30T05:21:50;100391.81;;;-0.55;100.00
35443;BME280;21561;55.654;37.592;2024-01-30T05:24:17;100369.66;;;-0.56;100.00
35443;BME280;21561;55.654;37.592;2024-01-30T05:26:47;100380.72;;;-0.56;100.00
35443;BME280;21561;55.654;37.592;2024-01-30T05:29:14;100399.47;;;-0.55;100.00
35443;BME280;21561;55.654;37.592;2024-01-30T05:31:41;100391.06;;;-0.53;100.00
35443;BME280;21561;55.654;37.592;2024-01-30T05:34:08;100391.94;;;-0.52;100.00
35443;BME280;21561;55.654;37.592;2024-01-30T05:36:36;100400.50;;;-0.52;100.00
35443;BME280;21561;55.654;37.592;2024-01-30T05:39:02;100406.38;;;-0.53;100.00
35443;BME280;21561;55.654;37.592;2024-01-30T05:41:33;100396.34;;;-0.50;100.00
35443;BME280;21561;55.654;37.592;2024-01-30T05:44:00;100387.00;;;-0.49;100.00
35443;BME280;21561;55.654;37.592;2024-01-30T05:46:27;100394.72;;;-0.48;100.00
35443;BME280;21561;55.654;37.592;2024-01-30T05:48:54;100380.31;;;-0.47;100.00
35443;BME280;21561;55.654;37.592;2024-01-30T05:51:21;100411.84;;;-0.45;100.00
35443;BME280;21561;55.654;37.592;2024-01-30T05:53:48;100387.16;;;-0.46;100.00
35443;BME280;21561;55.654;37.592;2024-01-30T05:56:15;100400.00;;;-0.45;100.00
35443;BME280;21561;55.654;37.592;2024-01-30T05:58:42;100404.34;;;-0.42;100.00
35443;BME280;21561;55.654;37.592;2024-01-30T06:01:10;100395.91;;;-0.41;100.00
35443;BME280;21561;55.654;37.592;2024-01-30T06:03:37;100397.66;;;-0.40;100.00
35443;BME280;21561;55.654;37.592;2024-01-30T06:06:05;100401.22;;;-0.36;100.00
35443;BME280;21561;55.654;37.592;2024-01-30T06:08:32;100408.00;;;-0.37;100.00
35443;BME280;21561;55.654;37.592;2024-01-30T06:10:59;100408.16;;;-0.34;100.00
35443;BME280;21561;55.654;37.592;2024-01-30T06:13:27;100411.66;;;-0.32;100.00
35443;BME280;21561;55.654;37.592;2024-01-30T06:15:54;100410.06;;;-0.30;100.00
35443;BME280;21561;55.654;37.592;2024-01-30T06:18:21;100404.09;;;-0.30;100.00
35443;BME280;21561;55.654;37.592;2024-01-30T06:20:48;100415.16;;;-0.30;100.00
35443;BME280;21561;55.654;37.592;2024-01-30T06:23:15;100411.78;;;-0.29;100.00
35443;BME280;21561;55.654;37.592;2024-01-30T06:25:42;100423.75;;;-0.28;100.00
35443;BME280;21561;55.654;37.592;2024-01-30T06:28:09;100425.66;;;-0.24;100.00
35443;BME280;21561;55.654;37.592;2024-01-30T06:30:36;100413.56;;;-0.28;100.00
35443;BME280;21561;55.654;37.592;2024-01-30T06:33:04;100423.75;;;-0.28;100.00
35443;BME280;21561;55.654;37.592;2024-01-30T06:35:31;100423.91;;;-0.25;100.00
35443;BME280;21561;55.654;37.592;2024-01-30T06:37:57;100429.97;;;-0.23;100.00
35443;BME280;21561;55.654;37.592;2024-01-30T06:40:24;100430.91;;;-0.21;100.00
35443;BME280;21561;55.654;37.592;2024-01-30T06:42:51;100418.22;;;-0.19;100.00
35443;BME280;21561;55.654;37.592;2024-01-30T06:45:18;100426.09;;;-0.14;100.00
35443;BME280;21561;55.654;37.592;2024-01-30T06:47:45;100410.16;;;-0.10;100.00
35443;BME280;21561;55.654;37.592;2024-01-30T06:50:12;100433.13;;;-0.10;100.00
35443;BME280;21561;55.654;37.592;2024-01-30T06:52:39;100427.09;;;-0.11;100.00
35443;BME280;21561;55.654;37.592;2024-01-30T06:55:06;100434.72;;;-0.12;100.00
35443;BME280;21561;55.654;37.592;2024-01-30T06:57:33;100432.94;;;-0.13;100.00
35443;BME280;21561;55.654;37.592;2024-01-30T07:00:00;100439.00;;;-0.11;100.00
35443;BME280;21561;55.654;37.592;2024-01-30T07:02:30;100435.66;;;-0.10;100.00
35443;BME280;21561;55.654;37.592;2024-01-30T07:04:57;100430.47;;;-0.12;100.00
35443;BME280;21561;55.654;37.592;2024-01-30T07:07:24;100433.22;;;-0.07;100.00
35443;BME280;21561;55.654;37.592;2024-01-30T07:09:52;100431.78;;;-0.02;100.00
35443;BME280;21561;55.654;37.592;2024-01-30T07:12:23;100435.00;;;-0.06;100.00
35443;BME280;21561;55.654;37.592;2024-01-30T07:14:52;100442.66;;;-0.06;100.00
35443;BME280;21561;55.654;37.592;2024-01-30T07:17:20;100452.06;;;-0.05;100.00
35443;BME280;21561;55.654;37.592;2024-01-30T07:19:46;100454.63;;;-0.05;100.00
35443;BME280;21561;55.654;37.592;2024-01-30T07:22:13;100448.69;;;-0.04;100.00
35443;BME280;21561;55.654;37.592;2024-01-30T07:24:44;100462.41;;;-0.02;100.00
35443;BME280;21561;55.654;37.592;2024-01-30T07:27:16;100472.47;;;-0.05;100.00
35443;BME280;21561;55.654;37.592;2024-01-30T07:29:44;100448.69;;;-0.04;100.00
35443;BME280;21561;55.654;37.592;2024-01-30T07:32:11;100471.66;;;-0.04;100.00
35443;BME280;21561;55.654;37.592;2024-01-30T07:34:38;100466.56;;;-0.04;100.00
35443;BME280;21561;55.654;37.592;2024-01-30T07:37:19;100449.66;;;-0.02;100.00
35443;BME280;21561;55.654;37.592;2024-01-30T07:39:47;100449.81;;;0.01;100.00
35443;BME280;21561;55.654;37.592;2024-01-30T07:42:14;100472.06;;;0.04;100.00
35443;BME280;21561;55.654;37.592;2024-01-30T07:44:41;100462.72;;;0.04;100.00
35443;BME280;21561;55.654;37.592;2024-01-30T07:47:08;100459.50;;;0.08;100.00
35443;BME280;21561;55.654;37.592;2024-01-30T07:49:35;100457.91;;;0.10;100.00
35443;BME280;21561;55.654;37.592;2024-01-30T07:52:05;100458.06;;;0.13;100.00
35443;BME280;21561;55.654;37.592;2024-01-30T07:54:33;100454.56;;;0.11;100.00
35443;BME280;21561;55.654;37.592;2024-01-30T07:57:01;100451.25;;;0.14;100.00
35443;BME280;21561;55.654;37.592;2024-01-30T07:59:27;100460.09;;;0.21;100.00
35443;BME280;21561;55.654;37.592;2024-01-30T08:01:55;100458.06;;;0.13;100.00
35443;BME280;21561;55.654;37.592;2024-01-30T08:04:22;100462.38;;;0.14;100.00
35443;BME280;21561;55.654;37.592;2024-01-30T08:06:49;100463.91;;;0.11;100.00
35443;BME280;21561;55.654;37.592;2024-01-30T08:09:16;100474.81;;;0.08;100.00
35443;BME280;21561;55.654;37.592;2024-01-30T08:11:43;100473.38;;;0.13;100.00
35443;BME280;21561;55.654;37.592;2024-01-30T08:14:10;100470.03;;;0.14;100.00
35443;BME280;21561;55.654;37.592;2024-01-30T08:16:37;100453.09;;;0.16;100.00
35443;BME280;21561;55.654;37.592;2024-01-30T08:19:04;100460.09;;;0.21;100.00
35443;BME280;21561;55.654;37.592;2024-01-30T08:21:31;100453.38;;;0.23;100.00
35443;BME280;21561;55.654;37.592;2024-01-30T08:24:06;100464.59;;;0.26;100.00
35443;BME280;21561;55.654;37.592;2024-01-30T08:26:33;100455.13;;;0.24;100.00
35443;BME280;21561;55.654;37.592;2024-01-30T08:29:01;100454.47;;;0.28;100.00
35443;BME280;21561;55.654;37.592;2024-01-30T08:31:28;100463.00;;;0.28;100.00
35443;BME280;21561;55.654;37.592;2024-01-30T08:33:55;100459.56;;;0.28;100.00
35443;BME280;21561;55.654;37.592;2024-01-30T08:36:23;100457.81;;;0.27;100.00
35443;BME280;21561;55.654;37.592;2024-01-30T08:38:49;100471.56;;;0.29;100.00
35443;BME280;21561;55.654;37.592;2024-01-30T08:41:21;100460.38;;;0.27;100.00
35443;BME280;21561;55.654;37.592;2024-01-30T08:43:48;100450.91;;;0.24;100.00
35443;BME280;21561;55.654;37.592;2024-01-30T08:46:18;100450.75;;;0.21;100.00
35443;BME280;21561;55.654;37.592;2024-01-30T08:48:46;100446.53;;;0.22;100.00
35443;BME280;21561;55.654;37.592;2024-01-30T08:51:14;100450.16;;;0.27;100.00
35443;BME280;21561;55.654;37.592;2024-01-30T08:53:42;100452.06;;;0.31;100.00
35443;BME280;21561;55.654;37.592;2024-01-30T08:56:09;100458.19;;;0.34;100.00
35443;BME280;21561;55.654;37.592;2024-01-30T08:58:36;100462.38;;;0.32;100.00
35443;BME280;21561;55.654;37.592;2024-01-30T09:01:04;100451.34;;;0.33;100.00
35443;BME280;21561;55.654;37.592;2024-01-30T09:03:32;100435.16;;;0.33;100.00
35443;BME280;21561;55.654;37.592;2024-01-30T09:05:59;100441.13;;;0.33;100.00
35443;BME280;21561;55.654;37.592;2024-01-30T09:08:26;100453.16;;;0.36;100.00
35443;BME280;21561;55.654;37.592;2024-01-30T09:10:53;100448.84;;;0.35;100.00
35443;BME280;21561;55.654;37.592;2024-01-30T09:13:21;100453.16;;;0.36;100.00
35443;BME280;21561;55.654;37.592;2024-01-30T09:15:48;100460.81;;;0.36;100.00
35443;BME280;21561;55.654;37.592;2024-01-30T09:18:16;100455.13;;;0.42;100.00
35443;BME280;21561;55.654;37.592;2024-01-30T09:20:43;100464.44;;;0.41;100.00
35443;BME280;21561;55.654;37.592;2024-01-30T09:23:12;100449.13;;;0.41;100.00
35443;BME280;21561;55.654;37.592;2024-01-30T09:25:38;100455.84;;;0.39;100.00
35443;BME280;21561;55.654;37.592;2024-01-30T09:28:06;100449.94;;;0.40;100.00
35443;BME280;21561;55.654;37.592;2024-01-30T09:30:32;100449.94;;;0.40;100.00
35443;BME280;21561;55.654;37.592;2024-01-30T09:32:59;100450.88;;;0.42;100.00
35443;BME280;21561;55.654;37.592;2024-01-30T09:35:27;100443.16;;;0.41;100.00
35443;BME280;21561;55.654;37.592;2024-01-30T09:37:54;100445.94;;;0.45;100.00
35443;BME280;21561;55.654;37.592;2024-01-30T09:40:21;100448.47;;;0.45;100.00
35443;BME280;21561;55.654;37.592;2024-01-30T09:42:50;100446.06;;;0.48;100.00
35443;BME280;21561;55.654;37.592;2024-01-30T09:45:18;100459.50;;;0.44;100.00
35443;BME280;21561;55.654;37.592;2024-01-30T09:47:45;100451.03;;;0.45;100.00
35443;BME280;21561;55.654;37.592;2024-01-30T09:50:14;100441.69;;;0.46;100.00
35443;BME280;21561;55.654;37.592;2024-01-30T09:52:46;100440.94;;;0.48;100.00
35443;BME280;21561;55.654;37.592;2024-01-30T09:55:13;100451.97;;;0.47;100.00
35443;BME280;21561;55.654;37.592;2024-01-30T09:57:41;100434.09;;;0.47;100.00
35443;BME280;21561;55.654;37.592;2024-01-30T10:00:09;100420.66;;;0.51;100.00
35443;BME280;21561;55.654;37.592;2024-01-30T10:02:37;100440.16;;;0.49;100.00
35443;BME280;21561;55.654;37.592;2024-01-30T10:05:04;100427.13;;;0.43;100.00
35443;BME280;21561;55.654;37.592;2024-01-30T10:07:32;100426.28;;;0.44;100.00
35443;BME280;21561;55.654;37.592;2024-01-30T10:09:59;100457.75;;;0.43;100.00
35443;BME280;21561;55.654;37.592;2024-01-30T10:12:26;100459.22;;;0.38;100.00
35443;BME280;21561;55.654;37.592;2024-01-30T10:14:56;100454.97;;;0.38;100.00
35443;BME280;21561;55.654;37.592;2024-01-30T10:17:25;100455.72;;;0.36;100.00
35443;BME280;21561;55.654;37.592;2024-01-30T10:19:59;100441.19;;;0.35;100.00
35443;BME280;21561;55.654;37.592;2024-01-30T10:22:29;100452.34;;;0.37;100.00
35443;BME280;21561;55.654;37.592;2024-01-30T10:24:57;100436.31;;;0.40;100.00
35443;BME280;21561;55.654;37.592;2024-01-30T10:27:28;100430.38;;;0.41;100.00
35443;BME280;21561;55.654;37.592;2024-01-30T10:29:56;100428.78;;;0.43;100.00
35443;BME280;21561;55.654;37.592;2024-01-30T10:32:23;100439.22;;;0.47;100.00
35443;BME280;21561;55.654;37.592;2024-01-30T10:34:52;100440.94;;;0.48;100.00
35443;BME280;21561;55.654;37.592;2024-01-30T10:37:21;100429.19;;;0.52;100.00
35443;BME280;21561;55.654;37.592;2024-01-30T10:39:53;100432.03;;;0.58;100.00
35443;BME280;21561;55.654;37.592;2024-01-30T10:42:25;100435.81;;;0.66;100.00
35443;BME280;21561;55.654;37.592;2024-01-30T10:45:02;100443.94;;;0.77;100.00
35443;BME280;21561;55.654;37.592;2024-01-30T10:47:35;100437.25;;;0.79;100.00
35443;BME280;21561;55.654;37.592;2024-01-30T10:50:05;100447.88;;;0.88;100.00
35443;BME280;21561;55.654;37.592;2024-01-30T10:52:34;100439.53;;;0.92;100.00
35443;BME280;21561;55.654;37.592;2024-01-30T10:55:04;100427.97;;;1.01;100.00
35443;BME280;21561;55.654;37.592;2024-01-30T10:57:35;100436.59;;;1.03;100.00
35443;BME280;21561;55.654;37.592;2024-01-30T11:00:10;100443.56;;;1.07;100.00
35443;BME280;21561;55.654;37.592;2024-01-30T11:02:44;100447.91;;;1.08;100.00
35443;BME280;21561;55.654;37.592;2024-01-30T11:05:13;100436.44;;;1.00;100.00
35443;BME280;21561;55.654;37.592;2024-01-30T11:07:42;100432.13;;;0.99;100.00
35443;BME280;21561;55.654;37.592;2024-01-30T11:10:11;100428.63;;;1.16;100.00
35443;BME280;21561;55.654;37.592;2024-01-30T11:12:42;100438.63;;;1.31;100.00
35443;BME280;21561;55.654;37.592;2024-01-30T11:15:15;100440.88;;;1.23;100.00
35443;BME280;21561;55.654;37.592;2024-01-30T11:17:42;100439.91;;;1.41;100.00
35443;BME280;21561;55.654;37.592;2024-01-30T11:20:16;100440.44;;;1.53;100.00
35443;BME280;21561;55.654;37.592;2024-01-30T11:22:46;100433.84;;;1.58;100.00
35443;BME280;21561;55.654;37.592;2024-01-30T11:25:15;100442.63;;;1.44;100.00
35443;BME280;21561;55.654;37.592;2024-01-30T11:27:44;100441.63;;;1.21;100.00
35443;BME280;21561;55.654;37.592;2024-01-30T11:30:29;100434.97;;;1.24;100.00
35443;BME280;21561;55.654;37.592;2024-01-30T11:33:09;100439.63;;;1.13;100.00
35443;BME280;21561;55.654;37.592;2024-01-30T11:35:43;100434.97;;;1.05;100.00
35443;BME280;21561;55.654;37.592;2024-01-30T11:38:13;100435.66;;;1.01;100.00
35443;BME280;21561;55.654;37.592;2024-01-30T11:40:41;100436.59;;;1.03;100.00
35443;BME280;21561;55.654;37.592;2024-01-30T11:43:09;100438.06;;;0.98;100.00
35443;BME280;21561;55.654;37.592;2024-01-30T11:45:37;100441.69;;;1.03;100.00
35443;BME280;21561;55.654;37.592;2024-01-30T11:48:04;100448.94;;;1.13;100.00
35443;BME280;21561;55.654;37.592;2024-01-30T11:50:33;100454.47;;;1.22;100.00
35443;BME280;21561;55.654;37.592;2024-01-30T11:53:01;100460.72;;;1.29;100.00
35443;BME280;21561;55.654;37.592;2024-01-30T11:55:29;100467.72;;;1.33;100.00
35443;BME280;21561;55.654;37.592;2024-01-30T11:58:01;100467.38;;;1.25;100.00
35443;BME280;21561;55.654;37.592;2024-01-30T12:00:28;100480.84;;;1.21;100.00
35443;BME280;21561;55.654;37.592;2024-01-30T12:02:57;100482.13;;;1.11;100.00
35443;BME280;21561;55.654;37.592;2024-01-30T12:05:28;100481.38;;;1.14;100.00
35443;BME280;21561;55.654;37.592;2024-01-30T12:07:55;100483.78;;;1.11;100.00
35443;BME280;21561;55.654;37.592;2024-01-30T12:10:26;100480.97;;;1.05;100.00
35443;BME280;21561;55.654;37.592;2024-01-30T12:12:54;100475.72;;;1.02;100.00
35443;BME280;21561;55.654;37.592;2024-01-30T12:15:22;100487.72;;;1.03;100.00
35443;BME280;21561;55.654;37.592;2024-01-30T12:17:49;100474.63;;;0.97;100.00
35443;BME280;21561;55.654;37.592;2024-01-30T12:20:20;100479.66;;;0.95;100.00
35443;BME280;21561;55.654;37.592;2024-01-30T12:22:49;100479.25;;;0.86;100.00
35443;BME280;21561;55.654;37.592;2024-01-30T12:25:19;100484.97;;;0.80;100.00
35443;BME280;21561;55.654;37.592;2024-01-30T12:27:48;100468.72;;;0.78;100.00
35443;BME280;21561;55.654;37.592;2024-01-30T12:30:20;100484.72;;;0.74;100.00
35443;BME280;21561;55.654;37.592;2024-01-30T12:32:50;100487.34;;;0.75;100.00
35443;BME280;21561;55.654;37.592;2024-01-30T12:35:19;100483.09;;;0.76;100.00
35443;BME280;21561;55.654;37.592;2024-01-30T12:37:48;100482.22;;;0.75;100.00